Time;durP1;ratioP1;P1;durP2;ratioP2;P2;SDS_P1;SDS_P2;PMS_P1;PMS_P2;Temp;Humidity;BMP_temperature;BMP_pressure;BME280_temperature;BME280_humidity;BME280_pressure;Samples;Min_cycle;Max_cycle;Signal;HPM_P1;HPM_P2
2023/12/31 00:01:10;;;;;;;0.10;0.10;;;;;;;9.51;100.00;100378.66;5098488;27;98839;-27
2023/12/31 00:03:36;;;;;;;0.45;0.30;;;;;;;9.50;100.00;100371.53;5098232;27;96647;-28
2023/12/31 00:06:02;;;;;;;0.30;0.20;;;;;;;9.49;100.00;100356.28;5098343;27;96839;-27
2023/12/31 00:08:27;;;;;;;0.30;0.30;;;;;;;9.51;100.00;100354.31;5097504;27;99259;-27
2023/12/31 00:10:52;;;;;;;8.00;0.35;;;;;;;9.49;100.00;100362.53;5098231;27;97408;-27
2023/12/31 00:13:17;;;;;;;0.20;0.20;;;;;;;9.49;100.00;100362.53;5098307;27;96564;-27
2023/12/31 00:15:43;;;;;;;0.20;0.20;;;;;;;9.49;100.00;100340.91;5098191;27;96852;-29
2023/12/31 00:18:08;;;;;;;0.60;0.28;;;;;;;9.47;100.00;100355.50;5097785;27;98021;-27
2023/12/31 00:20:33;;;;;;;0.32;0.20;;;;;;;9.47;100.00;100347.41;5097894;27;97768;-27
2023/12/31 00:22:59;;;;;;;0.28;0.13;;;;;;;9.49;100.00;100346.31;5079659;27;96684;-26
2023/12/31 00:25:24;;;;;;;0.20;0.20;;;;;;;9.49;100.00;100338.22;5098701;27;96833;-27
2023/12/31 00:27:49;;;;;;;0.05;0.05;;;;;;;9.51;100.00;100330.88;5097762;27;97934;-28
2023/12/31 00:30:15;;;;;;;0.00;0.00;;;;;;;9.39;100.00;100309.16;5097942;27;97819;-27
2023/12/31 00:32:40;;;;;;;0.45;0.28;;;;;;;9.46;100.00;100327.63;5097406;27;96679;-27
2023/12/31 00:35:06;;;;;;;0.47;0.30;;;;;;;9.49;100.00;100324.69;5098010;27;96789;-28
2023/12/31 00:37:31;;;;;;;0.57;0.20;;;;;;;9.46;100.00;100321.31;5097515;27;99669;-27
2023/12/31 00:39:56;;;;;;;1.25;0.40;;;;;;;9.48;100.00;100305.88;5097350;27;99131;-27
2023/12/31 00:42:22;;;;;;;0.00;0.00;;;;;;;9.46;100.00;100303.28;5098165;27;96658;-27
2023/12/31 00:44:47;;;;;;;0.13;0.08;;;;;;;9.44;100.00;100296.22;5097922;27;96784;-27
2023/12/31 00:47:13;;;;;;;0.43;0.22;;;;;;;9.46;100.00;100296.97;5097542;27;97926;-26
2023/12/31 00:49:38;;;;;;;0.75;0.32;;;;;;;9.42;100.00;100288.22;5097911;27;97268;-27
2023/12/31 00:52:03;;;;;;;0.22;0.20;;;;;;;9.42;100.00;100277.41;5078827;27;97015;-28
2023/12/31 00:54:30;;;;;;;0.25;0.25;;;;;;;9.45;100.00;100279.03;5097495;27;96753;-27
2023/12/31 00:56:55;;;;;;;0.57;0.40;;;;;;;9.49;100.00;100275.19;5096285;27;99222;-27
2023/12/31 00:59:20;;;;;;;0.90;0.30;;;;;;;9.46;100.00;100270.84;5078770;27;100426;-27
2023/12/31 01:01:46;;;;;;;0.55;0.43;;;;;;;9.47;100.00;100259.03;5097419;27;96606;-27
2023/12/31 01:04:12;;;;;;;2.20;0.40;;;;;;;9.40;100.00;100248.75;5097604;27;96782;-28
2023/12/31 01:06:37;;;;;;;0.30;0.20;;;;;;;9.45;100.00;100241.19;5097680;27;97375;-27
2023/12/31 01:09:04;;;;;;;0.50;0.35;;;;;;;9.41;100.00;100242.38;5096512;27;97238;-27
2023/12/31 01:11:29;;;;;;;0.17;0.13;;;;;;;9.43;100.00;100241.28;5078750;27;96784;-27
2023/12/31 01:13:55;;;;;;;0.20;0.13;;;;;;;9.45;100.00;100252.00;5097542;27;96526;-26
2023/12/31 01:16:20;;;;;;;0.43;0.15;;;;;;;9.35;100.00;100222.03;5096992;27;97458;-27
2023/12/31 01:18:46;;;;;;;0.10;0.10;;;;;;;9.43;100.00;100235.88;5097292;27;97892;-27
2023/12/31 01:21:11;;;;;;;0.55;0.30;;;;;;;9.43;100.00;100229.63;5096560;27;96507;-27
2023/12/31 01:23:36;;;;;;;0.32;0.20;;;;;;;9.44;100.00;100225.94;5096951;27;96757;-27
2023/12/31 01:26:02;;;;;;;0.25;0.25;;;;;;;9.39;100.00;100215.44;5096902;27;97884;-27
2023/12/31 01:28:27;;;;;;;1.08;0.30;;;;;;;9.42;100.00;100211.69;5077992;27;100715;-27
2023/12/31 01:30:53;;;;;;;0.43;0.30;;;;;;;9.41;99.85;100205.38;5096814;27;96839;-27
2023/12/31 01:33:18;;;;;;;0.15;0.05;;;;;;;9.34;99.51;100190.53;5097270;27;96799;-29
2023/12/31 01:35:43;;;;;;;0.32;0.17;;;;;;;9.41;99.24;100207.22;5097211;27;97521;-27
2023/12/31 01:38:09;;;;;;;0.40;0.25;;;;;;;9.41;99.64;100210.78;5096941;27;99201;-27
2023/12/31 01:40:34;;;;;;;0.03;0.03;;;;;;;9.38;99.30;100188.53;5097023;27;96793;-27
2023/12/31 01:42:59;;;;;;;0.47;0.30;;;;;;;9.43;99.53;100186.38;5097092;27;96911;-27
2023/12/31 01:45:25;;;;;;;0.10;0.10;;;;;;;9.36;99.09;100175.09;5096274;27;97966;-27
2023/12/31 01:47:51;;;;;;;1.42;0.15;;;;;;;9.40;99.10;100182.03;5096803;27;97257;-26
2023/12/31 01:50:23;;;;;;;0.20;0.10;;;;;;;9.38;98.96;100172.31;5078175;27;96493;-28
2023/12/31 01:52:51;;;;;;;2.13;0.50;;;;;;;9.35;98.91;100171.53;5078093;27;96841;-28
2023/12/31 01:55:17;;;;;;;1.00;0.17;;;;;;;9.30;98.71;100159.31;5077704;27;99375;-27
2023/12/31 01:57:42;;;;;;;0.65;0.52;;;;;;;9.30;98.46;100160.16;5095675;27;99063;-26
2023/12/31 02:00:09;;;;;;;0.20;0.20;;;;;;;9.35;98.83;100162.56;5096553;27;96750;-26
2023/12/31 02:02:35;;;;;;;0.28;0.25;;;;;;;9.31;98.69;100159.19;5078219;27;97894;-27
2023/12/31 02:05:01;;;;;;;0.20;0.20;;;;;;;9.32;98.20;100141.16;5096423;27;97797;-26
2023/12/31 02:07:26;;;;;;;0.15;0.15;;;;;;;9.29;98.80;100136.78;5077553;27;100999;-27
2023/12/31 02:09:51;;;;;;;2.17;0.70;;;;;;;9.29;98.85;100136.78;5095997;27;96634;-27
2023/12/31 02:12:18;;;;;;;0.20;0.20;;;;;;;9.27;97.34;100137.88;5096253;27;96823;-27
2023/12/31 02:14:43;;;;;;;0.00;0.00;;;;;;;9.26;97.68;100126.22;5077299;27;101108;-28
2023/12/31 02:17:09;;;;;;;0.80;0.38;;;;;;;9.28;97.73;100115.31;5095970;27;99254;-27
2023/12/31 02:19:34;;;;;;;14.15;0.88;;;;;;;9.23;97.66;100107.50;5096593;27;96528;-28
2023/12/31 02:22:01;;;;;;;0.20;0.20;;;;;;;9.26;97.94;100088.38;5094852;27;97135;-27
2023/12/31 02:24:33;;;;;;;0.30;0.25;;;;;;;9.24;97.91;100087.59;5077299;27;100843;-27
2023/12/31 02:26:58;;;;;;;0.70;0.40;;;;;;;9.24;97.74;100090.31;5077875;27;101228;-27
2023/12/31 02:29:23;;;;;;;0.52;0.20;;;;;;;9.25;98.15;100094.75;5096145;27;96753;-28
2023/12/31 02:31:49;;;;;;;1.38;0.35;;;;;;;9.25;97.70;100075.84;5095965;27;96885;-27
2023/12/31 02:34:15;;;;;;;0.77;0.10;;;;;;;9.18;97.56;100069.13;5095435;27;98054;-27
2023/12/31 02:36:40;;;;;;;0.35;0.20;;;;;;;9.19;97.71;100057.34;5096056;27;97665;-27
2023/12/31 02:39:05;;;;;;;0.85;0.35;;;;;;;9.23;97.52;100055.31;5096242;27;96634;-27
2023/12/31 02:41:32;;;;;;;0.45;0.32;;;;;;;9.19;97.81;100043.84;5095716;27;96852;-27
2023/12/31 02:43:57;;;;;;;1.85;0.77;;;;;;;9.24;97.55;100049.78;5095366;27;97059;-26
2023/12/31 02:46:23;;;;;;;1.45;0.30;;;;;;;9.17;97.25;100045.75;5095708;27;97857;-27
2023/12/31 02:48:48;;;;;;;1.23;0.57;;;;;;;9.19;97.60;100038.44;5095821;27;96888;-27
2023/12/31 02:51:14;;;;;;;0.57;0.25;;;;;;;9.20;97.19;100033.88;5095983;27;96784;-27
2023/12/31 02:53:39;;;;;;;0.10;0.10;;;;;;;9.13;97.03;100017.25;5095612;27;97840;-27
2023/12/31 02:56:05;;;;;;;0.40;0.10;;;;;;;9.16;97.09;100030.53;5095225;27;103437;-28
2023/12/31 02:58:30;;;;;;;0.17;0.17;;;;;;;9.12;97.23;100004.69;5094884;27;96726;-27
2023/12/31 03:00:55;;;;;;;0.13;0.10;;;;;;;9.12;97.39;100000.16;5095040;27;96794;-28
2023/12/31 03:03:21;;;;;;;0.55;0.38;;;;;;;9.11;97.32;99986.78;5093359;27;97323;-31
2023/12/31 03:05:46;;;;;;;0.63;0.40;;;;;;;9.16;97.92;99999.97;5093096;27;97856;-32
2023/12/31 03:08:11;;;;;;;0.20;0.20;;;;;;;9.02;97.13;99979.31;5093075;27;97046;-33
2023/12/31 03:10:37;;;;;;;0.30;0.30;;;;;;;9.07;97.75;99978.00;5093138;27;96940;-31
2023/12/31 03:13:03;;;;;;;0.57;0.30;;;;;;;9.04;97.36;99980.91;5092594;27;97684;-33
2023/12/31 03:15:28;;;;;;;1.20;0.30;;;;;;;9.02;97.99;99960.41;5074696;27;101205;-27
2023/12/31 03:17:53;;;;;;;0.38;0.22;;;;;;;9.01;97.54;99958.66;5095835;27;96461;-27
2023/12/31 03:20:19;;;;;;;0.30;0.28;;;;;;;9.03;97.85;99946.75;5095245;27;96549;-27
2023/12/31 03:22:47;;;;;;;0.90;0.40;;;;;;;8.98;97.96;99953.47;5094609;27;99174;-27
2023/12/31 03:25:13;;;;;;;0.40;0.40;;;;;;;9.01;97.85;99956.84;5095396;27;97365;-26
2023/12/31 03:27:38;;;;;;;0.88;0.20;;;;;;;8.95;98.15;99938.34;5076727;27;96684;-26
2023/12/31 03:30:05;;;;;;;0.22;0.22;;;;;;;8.98;98.33;99937.25;5076699;27;96797;-29
2023/12/31 03:32:30;;;;;;;2.67;0.50;;;;;;;8.98;98.37;99919.22;5077822;27;100998;-27
2023/12/31 03:34:56;;;;;;;0.30;0.25;;;;;;;8.94;98.22;99898.81;5098887;27;97800;-29
2023/12/31 03:37:21;;;;;;;0.57;0.52;;;;;;;8.98;98.48;99902.16;5098822;27;96591;-26
2023/12/31 03:39:47;;;;;;;0.60;0.25;;;;;;;8.93;98.33;99907.88;5099236;27;96877;-26
2023/12/31 03:42:12;;;;;;;2.10;0.52;;;;;;;8.93;98.38;99892.53;5098388;27;98389;-26
2023/12/31 03:44:37;;;;;;;0.45;0.28;;;;;;;8.93;98.63;99892.53;5098469;27;98388;-27
2023/12/31 03:47:03;;;;;;;0.45;0.25;;;;;;;8.95;98.53;99878.06;5098432;27;96590;-27
2023/12/31 03:49:28;;;;;;;0.32;0.25;;;;;;;8.96;98.24;99880.63;5098661;27;96828;-28
2023/12/31 03:51:53;;;;;;;0.65;0.30;;;;;;;8.93;98.51;99867.34;5098251;27;98077;-27
2023/12/31 03:54:19;;;;;;;0.30;0.30;;;;;;;8.89;98.49;99861.31;5098405;27;97388;-27
2023/12/31 03:56:44;;;;;;;1.13;0.17;;;;;;;8.96;98.41;99852.78;5097920;27;97302;-27
2023/12/31 03:59:09;;;;;;;0.10;0.10;;;;;;;8.99;98.54;99848.03;5079923;27;96750;-27
2023/12/31 04:01:43;;;;;;;1.25;0.30;;;;;;;8.86;98.37;99828.25;5098390;27;98129;-27
2023/12/31 04:04:08;;;;;;;0.10;0.10;;;;;;;8.93;98.53;99845.75;5079985;27;100770;-27
2023/12/31 04:06:34;;;;;;;4.13;0.32;;;;;;;8.92;98.46;99830.53;5098439;27;96618;-27
2023/12/31 04:08:59;;;;;;;0.50;0.20;;;;;;;8.85;98.64;99813.91;5098612;27;96802;-27
2023/12/31 04:11:24;;;;;;;1.58;0.70;;;;;;;8.88;98.76;99810.13;5097421;27;100471;-27
2023/12/31 04:13:50;;;;;;;1.17;0.43;;;;;;;8.91;98.81;99801.78;5098001;27;102896;-28
2023/12/31 04:16:15;;;;;;;0.98;0.60;;;;;;;8.90;98.79;99789.25;5098123;27;96527;-27
2023/12/31 04:18:40;;;;;;;0.52;0.30;;;;;;;8.91;98.76;99774.78;5098327;27;96732;-26
2023/12/31 04:21:05;;;;;;;2.85;0.45;;;;;;;8.93;98.86;99800.69;5097778;27;98736;-28
2023/12/31 04:23:31;;;;;;;0.88;0.32;;;;;;;8.91;98.88;99797.28;5097850;27;99524;-27
2023/12/31 04:25:56;;;;;;;0.40;0.22;;;;;;;8.87;99.03;99784.94;5098201;27;96606;-27
2023/12/31 04:28:21;;;;;;;0.50;0.25;;;;;;;8.84;98.94;99768.09;5098504;27;96714;-27
2023/12/31 04:30:47;;;;;;;0.47;0.10;;;;;;;8.87;98.97;99773.28;5097864;27;97854;-27
2023/12/31 04:33:12;;;;;;;1.42;0.55;;;;;;;8.82;99.21;99764.63;5097769;27;98167;-27
2023/12/31 04:35:37;;;;;;;0.50;0.50;;;;;;;8.82;99.18;99762.81;5097718;27;96462;-27
2023/12/31 04:38:03;;;;;;;1.17;0.30;;;;;;;8.81;99.46;99752.97;5097752;27;96780;-27
2023/12/31 04:40:28;;;;;;;1.63;0.22;;;;;;;8.82;99.46;99748.44;5096977;27;99665;-27
2023/12/31 04:42:54;;;;;;;0.52;0.40;;;;;;;8.79;99.50;99743.25;5097431;27;99510;-27
2023/12/31 04:45:19;;;;;;;0.47;0.30;;;;;;;8.78;99.26;99730.75;5097305;27;96473;-26
2023/12/31 04:47:44;;;;;;;0.25;0.17;;;;;;;8.79;99.52;99736.00;5097739;27;96815;-27
2023/12/31 04:50:10;;;;;;;0.22;0.20;;;;;;;8.76;99.43;99738.09;5097603;27;98808;-27
2023/12/31 04:52:35;;;;;;;0.25;0.25;;;;;;;8.79;99.55;99725.22;5097332;27;97844;-27
2023/12/31 04:55:01;;;;;;;0.40;0.10;;;;;;;8.80;99.43;99723.41;5097342;27;96604;-27
2023/12/31 04:57:26;;;;;;;0.30;0.20;;;;;;;8.76;99.57;99709.25;5097380;27;96685;-27
2023/12/31 04:59:52;;;;;;;0.63;0.40;;;;;;;8.82;99.55;99716.91;5096717;27;99451;-27
2023/12/31 05:02:17;;;;;;;1.00;0.43;;;;;;;8.74;99.60;99692.28;5097409;27;97857;-28
2023/12/31 05:04:43;;;;;;;0.52;0.40;;;;;;;8.85;99.63;99711.28;5097422;27;96536;-26
2023/12/31 05:07:09;;;;;;;0.45;0.20;;;;;;;8.84;99.51;99701.47;5097636;27;96686;-27
2023/12/31 05:09:35;;;;;;;0.82;0.60;;;;;;;8.86;99.67;99694.09;5078258;27;100825;-27
2023/12/31 05:12:01;;;;;;;0.93;0.40;;;;;;;8.85;99.80;99684.28;5078228;27;101287;-27
2023/12/31 05:14:26;;;;;;;0.47;0.38;;;;;;;8.89;99.85;99679.50;5097182;27;96455;-27
2023/12/31 05:16:51;;;;;;;1.17;0.50;;;;;;;8.86;99.89;99663.53;5097982;27;96783;-26
2023/12/31 05:19:16;;;;;;;0.25;0.10;;;;;;;8.82;99.60;99651.22;5078645;27;97462;-27
2023/12/31 05:21:42;;;;;;;0.10;0.10;;;;;;;8.87;99.66;99652.63;5097258;27;101334;-27
2023/12/31 05:24:07;;;;;;;0.35;0.22;;;;;;;8.87;99.56;99646.38;5096548;27;96536;-28
2023/12/31 05:26:33;;;;;;;0.28;0.28;;;;;;;8.92;99.61;99653.16;5097043;27;97903;-27
2023/12/31 05:28:58;;;;;;;0.45;0.30;;;;;;;8.90;99.50;99636.19;5096742;27;99080;-28
2023/12/31 05:31:23;;;;;;;1.50;0.80;;;;;;;8.94;99.47;99639.53;5096829;27;97802;-27
2023/12/31 05:33:49;;;;;;;0.35;0.32;;;;;;;8.92;99.48;99634.25;5096828;27;96579;-27
2023/12/31 05:36:14;;;;;;;0.98;0.38;;;;;;;8.98;99.24;99632.06;5097208;27;96712;-28
2023/12/31 05:38:39;;;;;;;0.70;0.60;;;;;;;8.96;99.01;99632.16;5096511;27;98857;-32
2023/12/31 05:41:05;;;;;;;0.50;0.30;;;;;;;8.98;98.83;99632.91;5096736;27;97778;-27
2023/12/31 05:43:30;;;;;;;0.40;0.20;;;;;;;8.99;98.80;99617.59;5097187;27;96586;-28
2023/12/31 05:45:55;;;;;;;0.90;0.60;;;;;;;8.99;98.67;99609.50;5096739;27;96772;-27
2023/12/31 05:48:21;;;;;;;0.50;0.30;;;;;;;9.01;98.60;99618.31;5096028;27;102056;-27
2023/12/31 05:50:47;;;;;;;0.63;0.35;;;;;;;9.00;98.58;99613.91;5095945;27;99577;-28
2023/12/31 05:53:13;;;;;;;1.33;0.80;;;;;;;9.00;98.68;99611.22;5096967;27;96427;-27
2023/12/31 05:55:38;;;;;;;0.55;0.30;;;;;;;8.98;98.57;99603.22;5096480;27;96801;-27
2023/12/31 05:58:03;;;;;;;0.35;0.35;;;;;;;8.99;98.68;99588.75;5095883;27;97859;-27
2023/12/31 06:00:29;;;;;;;0.57;0.38;;;;;;;9.03;98.78;99592.06;5096445;27;98003;-27
2023/12/31 06:02:55;;;;;;;0.17;0.17;;;;;;;9.02;98.86;99603.84;5096725;27;96578;-27
2023/12/31 06:05:20;;;;;;;0.47;0.47;;;;;;;9.05;98.55;99592.81;5096925;27;96757;-27
2023/12/31 06:07:46;;;;;;;0.20;0.20;;;;;;;9.00;98.60;99589.59;5096424;27;97993;-27
2023/12/31 06:10:11;;;;;;;0.10;0.10;;;;;;;9.05;98.42;99587.41;5096465;27;97333;-26
2023/12/31 06:12:36;;;;;;;0.15;0.15;;;;;;;9.04;98.39;99583.00;5095680;27;96534;-27
2023/12/31 06:15:06;;;;;;;0.60;0.60;;;;;;;9.04;98.63;99581.16;5096368;27;96753;-27
2023/12/31 06:17:32;;;;;;;1.65;1.10;;;;;;;9.01;98.51;99564.31;5095919;27;99295;-27
2023/12/31 06:19:58;;;;;;;1.15;0.70;;;;;;;9.04;98.39;99558.69;5077375;27;99885;-28
2023/12/31 06:22:23;;;;;;;1.05;0.32;;;;;;;9.02;98.28;99556.09;5096206;27;96638;-26
2023/12/31 06:24:48;;;;;;;0.80;0.60;;;;;;;9.03;97.95;99559.66;5096342;27;96832;-27
2023/12/31 06:27:14;;;;;;;0.50;0.40;;;;;;;9.01;98.00;99531.88;5096006;27;97896;-27
2023/12/31 06:29:39;;;;;;;1.00;0.75;;;;;;;9.07;98.07;99536.84;5096141;27;98858;-27
2023/12/31 06:32:05;;;;;;;0.32;0.30;;;;;;;9.06;97.82;99527.03;5095930;27;96652;-27
2023/12/31 06:34:30;;;;;;;2.08;0.40;;;;;;;9.09;98.18;99540.28;5096307;27;96686;-27
2023/12/31 06:36:55;;;;;;;0.57;0.52;;;;;;;9.09;98.35;99532.19;5095506;27;97403;-28
2023/12/31 06:39:20;;;;;;;0.40;0.10;;;;;;;9.07;97.89;99520.63;5095409;27;97302;-27
2023/12/31 06:41:46;;;;;;;1.80;0.60;;;;;;;9.10;97.85;99517.69;5096323;27;96482;-27
2023/12/31 06:44:11;;;;;;;1.65;0.77;;;;;;;9.12;97.75;99515.72;5096175;27;96768;-27
2023/12/31 06:46:36;;;;;;;0.20;0.13;;;;;;;9.13;97.68;99509.38;5095954;27;97333;-27
2023/12/31 06:49:03;;;;;;;1.13;0.70;;;;;;;9.11;97.40;99506.78;5095466;27;99310;-27
2023/12/31 06:51:28;;;;;;;0.52;0.30;;;;;;;9.17;97.65;99499.16;5095996;27;96693;-27
2023/12/31 06:53:53;;;;;;;0.77;0.60;;;;;;;9.18;97.59;99495.50;5096069;27;96738;-27
2023/12/31 06:56:19;;;;;;;1.70;0.77;;;;;;;9.21;97.62;99501.50;5095754;27;97802;-27
2023/12/31 06:58:44;;;;;;;1.10;0.70;;;;;;;9.23;97.96;99498.72;5095338;27;97991;-26
2023/12/31 07:01:09;;;;;;;1.08;0.50;;;;;;;9.17;98.21;99491.91;5095317;27;96801;-27
2023/12/31 07:03:35;;;;;;;0.70;0.35;;;;;;;9.22;98.86;99492.41;5095898;27;96724;-27
2023/12/31 07:06:00;;;;;;;1.25;0.70;;;;;;;9.13;99.43;99487.75;5095538;27;97357;-28
2023/12/31 07:08:26;;;;;;;1.50;0.73;;;;;;;9.11;99.85;99477.06;5079382;27;100750;-27
2023/12/31 07:10:52;;;;;;;0.47;0.45;;;;;;;9.15;100.00;99491.16;5099327;27;96454;-27
2023/12/31 07:13:18;;;;;;;0.88;0.68;;;;;;;9.09;100.00;99480.88;5080717;27;96776;-27
2023/12/31 07:15:43;;;;;;;0.60;0.40;;;;;;;9.04;100.00;99473.13;5080245;27;101016;-27
2023/12/31 07:18:09;;;;;;;0.65;0.35;;;;;;;9.00;100.00;99463.50;5099335;27;97853;-27
2023/12/31 07:20:35;;;;;;;0.43;0.30;;;;;;;9.03;100.00;99465.97;5080499;27;96600;-27
2023/12/31 07:23:00;;;;;;;0.57;0.57;;;;;;;9.04;100.00;99467.72;5099071;27;96756;-27
2023/12/31 07:25:28;;;;;;;0.40;0.40;;;;;;;8.95;100.00;99465.72;5079710;27;98112;-29
2023/12/31 07:27:54;;;;;;;1.25;0.63;;;;;;;8.95;100.00;99456.75;5098671;27;99184;-27
2023/12/31 07:30:19;;;;;;;0.15;0.15;;;;;;;8.97;100.00;99465.63;5080548;27;97130;-27
2023/12/31 07:32:44;;;;;;;1.77;1.48;;;;;;;8.95;100.00;99467.56;5098946;27;96814;-28
2023/12/31 07:35:10;;;;;;;0.60;0.40;;;;;;;8.94;100.00;99455.91;5098822;27;97841;-27
2023/12/31 07:37:38;;;;;;;0.30;0.20;;;;;;;8.94;100.00;99453.22;5098773;27;97310;-27
2023/12/31 07:40:05;;;;;;;0.90;0.50;;;;;;;8.87;100.00;99455.50;5098688;27;96845;-27
2023/12/31 07:42:30;;;;;;;0.73;0.50;;;;;;;8.88;100.00;99446.41;5080440;27;96860;-27
2023/12/31 07:44:56;;;;;;;0.50;0.43;;;;;;;8.85;100.00;99435.00;5098531;27;97956;-27
2023/12/31 07:47:21;;;;;;;0.45;0.45;;;;;;;8.85;100.00;99438.56;5096903;27;99289;-28
2023/12/31 07:49:47;;;;;;;0.30;0.30;;;;;;;8.86;100.00;99437.56;5079667;27;96616;-27
2023/12/31 07:52:13;;;;;;;0.17;0.10;;;;;;;8.89;100.00;99439.16;5098204;27;96781;-28
2023/12/31 07:54:39;;;;;;;1.58;0.60;;;;;;;8.85;100.00;99435.88;5079950;27;101086;-26
2023/12/31 07:57:04;;;;;;;2.90;0.50;;;;;;;8.82;100.00;99425.31;5097701;27;97788;-27
2023/12/31 07:59:30;;;;;;;0.98;0.63;;;;;;;8.81;100.00;99431.69;5098636;27;96635;-27
2023/12/31 08:01:57;;;;;;;0.65;0.57;;;;;;;8.78;100.00;99421.13;5098591;27;96756;-27
2023/12/31 08:04:23;;;;;;;0.93;0.43;;;;;;;8.85;100.00;99424.22;5098077;27;99455;-28
2023/12/31 08:06:48;;;;;;;0.52;0.35;;;;;;;8.81;100.00;99428.13;5098324;27;96639;-27
2023/12/31 08:09:15;;;;;;;0.50;0.50;;;;;;;8.76;100.00;99424.91;5079952;27;96567;-27
2023/12/31 08:11:40;;;;;;;0.82;0.40;;;;;;;8.72;100.00;99435.06;5098154;27;96820;-27
2023/12/31 08:14:06;;;;;;;0.95;0.60;;;;;;;8.75;100.00;99460.97;5097224;27;99434;-27
2023/12/31 08:16:31;;;;;;;0.50;0.35;;;;;;;8.68;100.00;99466.00;5098158;27;97479;-27
2023/12/31 08:18:57;;;;;;;0.75;0.30;;;;;;;8.63;100.00;99477.16;5097179;27;96512;-27
2023/12/31 08:21:22;;;;;;;0.57;0.45;;;;;;;8.59;100.00;99489.16;5098013;27;96930;-27
2023/12/31 08:23:47;;;;;;;0.65;0.28;;;;;;;8.45;100.00;99479.38;5079586;27;97437;-27
2023/12/31 08:26:13;;;;;;;2.83;0.28;;;;;;;8.45;100.00;99465.03;5097942;27;97816;-27
2023/12/31 08:28:39;;;;;;;0.10;0.03;;;;;;;8.48;100.00;99480.97;5097995;27;96498;-29
2023/12/31 08:31:04;;;;;;;0.32;0.28;;;;;;;8.46;100.00;99481.13;5098750;27;96592;-28
2023/12/31 08:33:30;;;;;;;2.17;0.00;;;;;;;8.36;100.00;99461.16;5097630;27;97879;-27
2023/12/31 08:35:55;;;;;;;0.00;0.00;;;;;;;8.32;100.00;99465.06;5097653;27;97978;-27
2023/12/31 08:38:20;;;;;;;0.10;0.10;;;;;;;8.30;100.00;99458.91;5097506;27;96534;-27
2023/12/31 08:40:46;;;;;;;0.08;0.00;;;;;;;8.29;100.00;99466.16;5079501;27;96676;-28
2023/12/31 08:43:11;;;;;;;0.22;0.00;;;;;;;8.26;100.00;99460.97;5097574;27;99434;-28
2023/12/31 08:45:39;;;;;;;0.03;0.00;;;;;;;8.28;100.00;99468.97;5097490;27;99302;-27
2023/12/31 08:48:07;;;;;;;0.15;0.10;;;;;;;8.24;100.00;99460.22;5079159;27;96725;-26
2023/12/31 08:50:32;;;;;;;0.00;0.00;;;;;;;8.24;100.00;99476.41;5078939;27;96769;-27
2023/12/31 08:52:58;;;;;;;0.00;0.00;;;;;;;8.29;100.00;99487.75;5097529;27;97050;-30
2023/12/31 08:55:23;;;;;;;0.30;0.10;;;;;;;8.30;100.00;99485.91;5097930;27;97782;-27
2023/12/31 08:57:48;;;;;;;4.57;0.17;;;;;;;8.33;100.00;99495.59;5096506;27;96838;-28
2023/12/31 09:00:17;;;;;;;0.13;0.13;;;;;;;8.30;100.00;99494.00;5097826;27;96471;-26
2023/12/31 09:02:43;;;;;;;0.03;0.03;;;;;;;8.27;100.00;99495.09;5078159;27;101091;-26
2023/12/31 09:05:09;;;;;;;0.28;0.20;;;;;;;8.28;100.00;99483.31;5078384;27;101420;-26
2023/12/31 09:07:35;;;;;;;0.00;0.00;;;;;;;8.29;100.00;99493.13;5061851;27;97289;-27
2023/12/31 09:10:04;;;;;;;0.13;0.00;;;;;;;8.30;100.00;99475.09;5097603;27;96724;-27
2023/12/31 09:12:29;;;;;;;0.32;0.20;;;;;;;8.32;100.00;99470.47;5078228;27;102442;-27
2023/12/31 09:14:55;;;;;;;0.00;0.00;;;;;;;8.27;100.00;99460.00;5096850;27;99589;-27
2023/12/31 09:17:20;;;;;;;0.00;0.00;;;;;;;8.33;100.00;99488.38;5097534;27;96611;-28
2023/12/31 09:19:46;;;;;;;1.20;0.10;;;;;;;8.36;100.00;99487.28;5097794;27;96882;-27
2023/12/31 09:22:11;;;;;;;0.10;0.10;;;;;;;8.35;100.00;99478.31;5096943;27;99290;-27
2023/12/31 09:24:37;;;;;;;6.38;0.20;;;;;;;8.39;100.00;99473.53;5096930;27;97809;-27
2023/12/31 09:27:03;;;;;;;0.50;0.10;;;;;;;8.35;100.00;99459.44;5096573;27;96711;-27
2023/12/31 09:29:29;;;;;;;0.10;0.10;;;;;;;8.44;100.00;99461.47;5096542;27;96892;-27
2023/12/31 09:31:54;;;;;;;0.28;0.17;;;;;;;8.45;100.00;99465.88;5096884;27;97388;-27
2023/12/31 09:34:20;;;;;;;0.10;0.08;;;;;;;8.53;100.00;99469.84;5077974;27;100493;-27
2023/12/31 09:36:45;;;;;;;0.25;0.25;;;;;;;8.53;100.00;99469.84;5097151;27;96550;-28
2023/12/31 09:39:11;;;;;;;0.00;0.00;;;;;;;8.62;100.00;99475.41;5096802;27;96801;-31
2023/12/31 09:41:37;;;;;;;0.20;0.00;;;;;;;8.65;100.00;99483.28;5096589;27;98533;-36
2023/12/31 09:44:03;;;;;;;0.15;0.15;;;;;;;8.65;100.00;99469.81;5096814;27;99668;-27
2023/12/31 09:46:31;;;;;;;0.10;0.08;;;;;;;8.74;100.00;99472.75;5096855;27;96722;-27
2023/12/31 09:48:58;;;;;;;0.00;0.00;;;;;;;8.77;100.00;99477.91;5096503;27;96842;-26
2023/12/31 09:51:23;;;;;;;0.10;0.00;;;;;;;8.75;100.00;99472.66;5076488;27;101502;-28
2023/12/31 09:53:52;;;;;;;0.43;0.35;;;;;;;8.78;100.00;99468.88;5096124;27;99048;-28
2023/12/31 09:56:21;;;;;;;0.00;0.00;;;;;;;8.80;100.00;99473.16;5078051;27;96626;-27
2023/12/31 09:58:50;;;;;;;0.00;0.00;;;;;;;8.84;100.00;99477.34;5077012;27;96852;-27
2023/12/31 10:01:16;;;;;;;0.55;0.17;;;;;;;8.87;100.00;99487.91;5076947;27;101120;-28
2023/12/31 10:03:44;;;;;;;0.03;0.03;;;;;;;8.80;100.00;99458.81;5096380;27;97744;-27
2023/12/31 10:06:10;;;;;;;0.20;0.20;;;;;;;8.80;100.00;99472.31;5077544;27;97042;-27
2023/12/31 10:08:38;;;;;;;0.55;0.28;;;;;;;8.86;100.00;99477.22;5096873;27;96626;-28
2023/12/31 10:11:03;;;;;;;0.00;0.00;;;;;;;8.76;100.00;99478.91;5096057;27;99343;-27
2023/12/31 10:13:30;;;;;;;0.13;0.10;;;;;;;8.73;100.00;99473.75;5095928;27;99105;-27
2023/12/31 10:15:55;;;;;;;0.05;0.03;;;;;;;8.71;100.00;99460.38;5077198;27;96741;-29
2023/12/31 10:18:25;;;;;;;0.20;0.20;;;;;;;8.71;100.00;99465.75;5096450;27;96727;-28
2023/12/31 10:20:50;;;;;;;0.80;0.10;;;;;;;8.68;100.00;99458.75;5077443;27;101684;-28
2023/12/31 10:23:16;;;;;;;0.50;0.30;;;;;;;8.73;100.00;99460.25;5096157;27;97584;-27
2023/12/31 10:25:42;;;;;;;0.20;0.13;;;;;;;8.73;100.00;99466.50;5096608;27;96712;-29
2023/12/31 10:28:08;;;;;;;0.52;0.32;;;;;;;8.69;100.00;99449.66;5077850;27;96802;-27
2023/12/31 10:30:37;;;;;;;0.47;0.40;;;;;;;8.74;100.00;99445.78;5095837;27;97897;-27
2023/12/31 10:33:12;;;;;;;0.28;0.28;;;;;;;8.74;100.00;99440.38;5077652;27;101151;-27
2023/12/31 10:35:38;;;;;;;0.25;0.20;;;;;;;8.74;100.00;99441.22;5096009;27;96644;-27
2023/12/31 10:38:04;;;;;;;0.20;0.10;;;;;;;8.67;100.00;99442.66;5096164;27;96756;-27
2023/12/31 10:40:31;;;;;;;0.60;0.32;;;;;;;8.67;100.00;99458.88;5076453;27;100972;-27
2023/12/31 10:42:57;;;;;;;0.10;0.10;;;;;;;8.65;100.00;99461.72;5079260;27;101586;-27
2023/12/31 10:45:23;;;;;;;0.85;0.20;;;;;;;8.56;100.00;99466.94;5080537;27;96707;-26
2023/12/31 10:47:51;;;;;;;0.20;0.10;;;;;;;8.44;100.00;99474.97;5080548;27;96836;-27
2023/12/31 10:50:22;;;;;;;0.20;0.10;;;;;;;8.33;100.00;99476.72;5099211;27;99499;-27
2023/12/31 10:52:53;;;;;;;0.10;0.10;;;;;;;8.22;100.00;99493.69;5080454;27;100800;-28
2023/12/31 10:55:19;;;;;;;2.23;0.17;;;;;;;8.19;100.00;99500.16;5096611;27;96454;-29
2023/12/31 10:57:47;;;;;;;0.08;0.00;;;;;;;8.15;100.00;99516.69;5080891;27;96829;-27
2023/12/31 11:00:13;;;;;;;0.60;0.30;;;;;;;8.08;100.00;99516.28;5080622;27;100773;-28
2023/12/31 11:02:41;;;;;;;0.10;0.10;;;;;;;8.05;100.00;99517.34;5080526;27;100741;-27
2023/12/31 11:05:07;;;;;;;0.00;0.00;;;;;;;8.05;100.00;99533.53;5080638;27;96581;-27
2023/12/31 11:07:34;;;;;;;0.10;0.10;;;;;;;8.00;100.00;99529.44;5080849;27;96614;-28
2023/12/31 11:10:00;;;;;;;0.00;0.00;;;;;;;8.01;100.00;99541.97;5098955;27;99548;-27
2023/12/31 11:12:26;;;;;;;1.20;0.28;;;;;;;8.06;100.00;99551.44;5098885;27;96633;-27
2023/12/31 11:15:10;;;;;;;0.85;0.30;;;;;;;8.08;100.00;99554.91;5080790;27;96637;-28
2023/12/31 11:18:23;;;;;;;0.35;0.30;;;;;;;8.07;100.00;99555.84;5099689;27;96448;-27
2023/12/31 11:21:12;;;;;;;0.10;0.03;;;;;;;8.05;100.00;99555.09;5015421;28;97423;-27
2023/12/31 11:23:59;;;;;;;0.20;0.05;;;;;;;8.05;100.00;99548.84;5015536;28;99308;-27
2023/12/31 11:26:25;;;;;;;0.28;0.20;;;;;;;8.06;100.00;99548.75;5066404;27;96652;-27
2023/12/31 11:28:50;;;;;;;0.03;0.03;;;;;;;8.05;100.00;99549.72;5099043;27;96735;-27